sensor_id;sensor_type;location;lat;lon;timestamp;P1;durP1;ratioP1;P2;durP2;ratioP2
34737;SDS011;39910;47.154;27.614;2023-04-01T00:00:08;9.50;;;9.00;;
34737;SDS011;39910;47.154;27.614;2023-04-01T00:02:34;9.30;;;8.80;;
34737;SDS011;39910;47.154;27.614;2023-04-01T00:05:00;9.80;;;9.30;;
34737;SDS011;39910;47.154;27.614;2023-04-01T00:07:26;10.00;;;9.50;;
34737;SDS011;39910;47.154;27.614;2023-04-01T00:09:52;10.00;;;9.50;;
34737;SDS011;39910;47.154;27.614;2023-04-01T00:12:17;9.55;;;9.05;;
34737;SDS011;39910;47.154;27.614;2023-04-01T00:14:42;9.63;;;9.13;;
34737;SDS011;39910;47.154;27.614;2023-04-01T00:17:08;9.45;;;9.02;;
34737;SDS011;39910;47.154;27.614;2023-04-01T00:19:33;9.13;;;8.73;;
34737;SDS011;39910;47.154;27.614;2023-04-01T00:21:58;9.30;;;8.90;;
34737;SDS011;39910;47.154;27.614;2023-04-01T00:24:24;10.20;;;9.70;;
34737;SDS011;39910;47.154;27.614;2023-04-01T00:26:49;9.35;;;8.88;;
34737;SDS011;39910;47.154;27.614;2023-04-01T00:29:14;9.70;;;9.20;;
34737;SDS011;39910;47.154;27.614;2023-04-01T00:31:40;9.77;;;9.27;;
34737;SDS011;39910;47.154;27.614;2023-04-01T00:34:05;9.38;;;8.95;;
34737;SDS011;39910;47.154;27.614;2023-04-01T00:36:30;10.30;;;9.70;;
34737;SDS011;39910;47.154;27.614;2023-04-01T00:38:57;10.10;;;9.60;;
34737;SDS011;39910;47.154;27.614;2023-04-01T00:41:23;9.98;;;9.48;;
34737;SDS011;39910;47.154;27.614;2023-04-01T00:43:51;9.25;;;8.85;;
34737;SDS011;39910;47.154;27.614;2023-04-01T00:46:17;10.38;;;9.77;;
34737;SDS011;39910;47.154;27.614;2023-04-01T00:48:50;11.02;;;10.40;;
34737;SDS011;39910;47.154;27.614;2023-04-01T00:51:20;10.23;;;9.73;;
34737;SDS011;39910;47.154;27.614;2023-04-01T00:53:48;10.23;;;9.73;;
34737;SDS011;39910;47.154;27.614;2023-04-01T00:56:19;9.52;;;9.05;;
34737;SDS011;39910;47.154;27.614;2023-04-01T00:58:48;10.00;;;9.50;;
34737;SDS011;39910;47.154;27.614;2023-04-01T01:01:15;9.68;;;9.18;;
34737;SDS011;39910;47.154;27.614;2023-04-01T01:03:40;10.52;;;9.95;;
34737;SDS011;39910;47.154;27.614;2023-04-01T01:11:16;10.40;;;9.85;;
34737;SDS011;39910;47.154;27.614;2023-04-01T01:13:52;10.95;;;10.25;;
34737;SDS011;39910;47.154;27.614;2023-04-01T01:16:24;9.95;;;9.45;;
34737;SDS011;39910;47.154;27.614;2023-04-01T01:24:07;9.65;;;9.15;;
34737;SDS011;39910;47.154;27.614;2023-04-01T01:34:15;9.60;;;9.10;;
34737;SDS011;39910;47.154;27.614;2023-04-01T01:36:44;9.63;;;9.13;;
34737;SDS011;39910;47.154;27.614;2023-04-01T01:39:10;9.30;;;8.90;;
34737;SDS011;39910;47.154;27.614;2023-04-01T01:41:37;9.90;;;9.40;;
34737;SDS011;39910;47.154;27.614;2023-04-01T01:44:04;9.65;;;9.15;;
34737;SDS011;39910;47.154;27.614;2023-04-01T01:46:31;9.52;;;9.07;;
34737;SDS011;39910;47.154;27.614;2023-04-01T01:48:56;9.77;;;9.27;;
34737;SDS011;39910;47.154;27.614;2023-04-01T01:51:22;9.50;;;9.10;;
34737;SDS011;39910;47.154;27.614;2023-04-01T01:53:48;9.80;;;9.30;;
34737;SDS011;39910;47.154;27.614;2023-04-01T01:56:13;9.68;;;9.18;;
34737;SDS011;39910;47.154;27.614;2023-04-01T01:58:43;9.05;;;8.65;;
34737;SDS011;39910;47.154;27.614;2023-04-01T02:01:10;9.00;;;8.60;;
34737;SDS011;39910;47.154;27.614;2023-04-01T02:03:37;9.70;;;9.20;;
34737;SDS011;39910;47.154;27.614;2023-04-01T02:06:04;9.80;;;9.30;;
34737;SDS011;39910;47.154;27.614;2023-04-01T02:08:31;9.63;;;9.13;;
34737;SDS011;39910;47.154;27.614;2023-04-01T02:11:05;9.10;;;8.70;;
34737;SDS011;39910;47.154;27.614;2023-04-01T02:13:40;9.57;;;9.07;;
34737;SDS011;39910;47.154;27.614;2023-04-01T02:16:15;9.25;;;8.85;;
34737;SDS011;39910;47.154;27.614;2023-04-01T02:18:43;9.77;;;9.27;;
34737;SDS011;39910;47.154;27.614;2023-04-01T02:21:09;9.20;;;8.80;;
34737;SDS011;39910;47.154;27.614;2023-04-01T02:23:35;8.95;;;8.55;;
34737;SDS011;39910;47.154;27.614;2023-04-01T02:26:01;9.45;;;8.95;;
34737;SDS011;39910;47.154;27.614;2023-04-01T02:28:27;9.82;;;9.32;;
34737;SDS011;39910;47.154;27.614;2023-04-01T02:30:53;9.40;;;8.93;;
34737;SDS011;39910;47.154;27.614;2023-04-01T02:33:19;9.20;;;8.80;;
34737;SDS011;39910;47.154;27.614;2023-04-01T02:35:45;9.63;;;9.13;;
34737;SDS011;39910;47.154;27.614;2023-04-01T02:38:10;8.93;;;8.52;;
34737;SDS011;39910;47.154;27.614;2023-04-01T02:40:46;9.60;;;9.10;;
34737;SDS011;39910;47.154;27.614;2023-04-01T02:43:12;10.57;;;9.98;;
34737;SDS011;39910;47.154;27.614;2023-04-01T02:45:37;9.60;;;9.10;;
34737;SDS011;39910;47.154;27.614;2023-04-01T02:48:03;9.20;;;8.80;;
34737;SDS011;39910;47.154;27.614;2023-04-01T02:50:28;8.82;;;8.43;;
34737;SDS011;39910;47.154;27.614;2023-04-01T02:52:53;9.35;;;8.93;;
34737;SDS011;39910;47.154;27.614;2023-04-01T02:55:19;9.80;;;9.30;;
34737;SDS011;39910;47.154;27.614;2023-04-01T02:57:44;9.60;;;9.10;;
34737;SDS011;39910;47.154;27.614;2023-04-01T03:00:10;9.43;;;9.02;;
34737;SDS011;39910;47.154;27.614;2023-04-01T03:02:37;9.38;;;8.98;;
34737;SDS011;39910;47.154;27.614;2023-04-01T03:05:02;9.65;;;9.15;;
34737;SDS011;39910;47.154;27.614;2023-04-01T03:07:27;10.00;;;9.50;;
34737;SDS011;39910;47.154;27.614;2023-04-01T03:09:53;9.43;;;8.93;;
34737;SDS011;39910;47.154;27.614;2023-04-01T03:12:18;9.45;;;9.00;;
34737;SDS011;39910;47.154;27.614;2023-04-01T03:14:43;9.68;;;9.18;;
34737;SDS011;39910;47.154;27.614;2023-04-01T03:17:09;9.85;;;9.35;;
34737;SDS011;39910;47.154;27.614;2023-04-01T03:19:34;10.02;;;9.52;;
34737;SDS011;39910;47.154;27.614;2023-04-01T03:21:59;9.30;;;8.90;;
34737;SDS011;39910;47.154;27.614;2023-04-01T03:24:25;9.60;;;9.10;;
34737;SDS011;39910;47.154;27.614;2023-04-01T03:26:50;9.02;;;8.63;;
34737;SDS011;39910;47.154;27.614;2023-04-01T03:29:16;10.93;;;10.32;;
34737;SDS011;39910;47.154;27.614;2023-04-01T03:31:41;9.80;;;9.30;;
34737;SDS011;39910;47.154;27.614;2023-04-01T03:34:06;9.68;;;9.18;;
34737;SDS011;39910;47.154;27.614;2023-04-01T03:36:32;10.77;;;10.18;;
34737;SDS011;39910;47.154;27.614;2023-04-01T03:38:57;9.23;;;8.82;;
34737;SDS011;39910;47.154;27.614;2023-04-01T03:41:22;10.20;;;9.70;;
34737;SDS011;39910;47.154;27.614;2023-04-01T03:43:47;9.88;;;9.38;;
34737;SDS011;39910;47.154;27.614;2023-04-01T03:46:17;10.13;;;9.63;;
34737;SDS011;39910;47.154;27.614;2023-04-01T03:48:42;9.80;;;9.30;;
34737;SDS011;39910;47.154;27.614;2023-04-01T03:51:07;9.50;;;9.05;;
34737;SDS011;39910;47.154;27.614;2023-04-01T03:53:33;9.98;;;9.48;;
34737;SDS011;39910;47.154;27.614;2023-04-01T03:55:58;10.02;;;9.52;;
34737;SDS011;39910;47.154;27.614;2023-04-01T03:58:23;10.02;;;9.52;;
34737;SDS011;39910;47.154;27.614;2023-04-01T04:00:49;9.45;;;9.00;;
34737;SDS011;39910;47.154;27.614;2023-04-01T04:03:14;10.23;;;9.73;;
34737;SDS011;39910;47.154;27.614;2023-04-01T04:05:46;10.35;;;9.77;;
34737;SDS011;39910;47.154;27.614;2023-04-01T04:08:11;10.05;;;9.55;;
34737;SDS011;39910;47.154;27.614;2023-04-01T04:10:36;10.38;;;9.77;;
34737;SDS011;39910;47.154;27.614;2023-04-01T04:13:02;9.85;;;9.35;;
34737;SDS011;39910;47.154;27.614;2023-04-01T04:15:27;10.70;;;10.10;;
34737;SDS011;39910;47.154;27.614;2023-04-01T04:17:53;9.95;;;9.45;;
34737;SDS011;39910;47.154;27.614;2023-04-01T04:20:18;9.80;;;9.30;;
34737;SDS011;39910;47.154;27.614;2023-04-01T04:22:43;10.02;;;9.52;;
34737;SDS011;39910;47.154;27.614;2023-04-01T04:25:09;9.70;;;9.20;;
34737;SDS011;39910;47.154;27.614;2023-04-01T04:27:35;9.52;;;9.05;;
34737;SDS011;39910;47.154;27.614;2023-04-01T04:30:00;9.93;;;9.43;;
34737;SDS011;39910;47.154;27.614;2023-04-01T04:32:25;9.82;;;9.32;;
34737;SDS011;39910;47.154;27.614;2023-04-01T04:34:51;9.70;;;9.20;;
34737;SDS011;39910;47.154;27.614;2023-04-01T04:37:16;10.40;;;9.82;;
34737;SDS011;39910;47.154;27.614;2023-04-01T04:39:41;9.88;;;9.38;;
34737;SDS011;39910;47.154;27.614;2023-04-01T04:42:07;9.60;;;9.10;;
34737;SDS011;39910;47.154;27.614;2023-04-01T04:44:32;9.15;;;8.75;;
34737;SDS011;39910;47.154;27.614;2023-04-01T04:46:57;9.52;;;9.05;;
34737;SDS011;39910;47.154;27.614;2023-04-01T04:49:22;9.63;;;9.13;;
34737;SDS011;39910;47.154;27.614;2023-04-01T04:51:48;9.68;;;9.18;;
34737;SDS011;39910;47.154;27.614;2023-04-01T04:54:13;9.30;;;8.90;;
34737;SDS011;39910;47.154;27.614;2023-04-01T04:56:38;9.70;;;9.23;;
34737;SDS011;39910;47.154;27.614;2023-04-01T04:59:04;9.85;;;9.35;;
34737;SDS011;39910;47.154;27.614;2023-04-01T05:01:30;9.98;;;9.48;;
34737;SDS011;39910;47.154;27.614;2023-04-01T05:03:55;10.10;;;9.60;;
34737;SDS011;39910;47.154;27.614;2023-04-01T05:06:21;9.40;;;9.00;;
34737;SDS011;39910;47.154;27.614;2023-04-01T05:08:46;9.48;;;9.07;;
34737;SDS011;39910;47.154;27.614;2023-04-01T05:11:13;9.90;;;9.40;;
34737;SDS011;39910;47.154;27.614;2023-04-01T05:13:39;9.85;;;9.35;;
34737;SDS011;39910;47.154;27.614;2023-04-01T05:16:07;9.80;;;9.30;;
34737;SDS011;39910;47.154;27.614;2023-04-01T05:18:33;9.90;;;9.40;;
34737;SDS011;39910;47.154;27.614;2023-04-01T05:20:58;9.00;;;8.60;;
34737;SDS011;39910;47.154;27.614;2023-04-01T05:23:24;9.60;;;9.10;;
34737;SDS011;39910;47.154;27.614;2023-04-01T05:25:49;9.73;;;9.23;;
34737;SDS011;39910;47.154;27.614;2023-04-01T05:28:16;9.93;;;9.43;;
34737;SDS011;39910;47.154;27.614;2023-04-01T05:30:41;9.40;;;9.00;;
34737;SDS011;39910;47.154;27.614;2023-04-01T05:33:07;9.40;;;9.00;;
34737;SDS011;39910;47.154;27.614;2023-04-01T05:35:32;9.77;;;9.27;;
34737;SDS011;39910;47.154;27.614;2023-04-01T05:37:57;10.93;;;10.32;;
34737;SDS011;39910;47.154;27.614;2023-04-01T05:40:23;9.77;;;9.27;;
34737;SDS011;39910;47.154;27.614;2023-04-01T05:42:48;9.95;;;9.45;;
34737;SDS011;39910;47.154;27.614;2023-04-01T05:45:13;9.60;;;9.10;;
34737;SDS011;39910;47.154;27.614;2023-04-01T05:47:40;10.35;;;9.85;;
34737;SDS011;39910;47.154;27.614;2023-04-01T05:50:07;10.38;;;9.85;;
34737;SDS011;39910;47.154;27.614;2023-04-01T05:52:32;10.38;;;9.88;;
34737;SDS011;39910;47.154;27.614;2023-04-01T05:54:58;9.40;;;9.00;;
34737;SDS011;39910;47.154;27.614;2023-04-01T05:57:24;9.45;;;9.02;;
34737;SDS011;39910;47.154;27.614;2023-04-01T05:59:50;10.75;;;10.15;;
34737;SDS011;39910;47.154;27.614;2023-04-01T06:02:16;9.98;;;9.48;;
34737;SDS011;39910;47.154;27.614;2023-04-01T06:04:42;10.10;;;9.60;;
34737;SDS011;39910;47.154;27.614;2023-04-01T06:07:17;10.13;;;9.63;;
34737;SDS011;39910;47.154;27.614;2023-04-01T06:09:42;9.85;;;9.35;;
34737;SDS011;39910;47.154;27.614;2023-04-01T06:19:54;10.05;;;9.55;;
34737;SDS011;39910;47.154;27.614;2023-04-01T06:22:26;9.20;;;8.80;;
34737;SDS011;39910;47.154;27.614;2023-04-01T06:40:59;10.63;;;10.13;;
34737;SDS011;39910;47.154;27.614;2023-04-01T06:54:03;10.57;;;10.07;;
34737;SDS011;39910;47.154;27.614;2023-04-01T06:56:29;10.88;;;10.38;;
34737;SDS011;39910;47.154;27.614;2023-04-01T07:01:53;11.48;;;10.88;;
34737;SDS011;39910;47.154;27.614;2023-04-01T07:04:27;11.38;;;10.77;;
34737;SDS011;39910;47.154;27.614;2023-04-01T07:07:04;10.73;;;10.23;;
34737;SDS011;39910;47.154;27.614;2023-04-01T07:09:31;10.93;;;10.43;;
34737;SDS011;39910;47.154;27.614;2023-04-01T07:12:00;11.30;;;10.70;;
34737;SDS011;39910;47.154;27.614;2023-04-01T07:14:33;10.10;;;9.60;;
34737;SDS011;39910;47.154;27.614;2023-04-01T07:17:14;11.23;;;10.63;;
34737;SDS011;39910;47.154;27.614;2023-04-01T07:19:45;10.20;;;9.70;;
34737;SDS011;39910;47.154;27.614;2023-04-01T07:22:22;10.73;;;10.23;;
34737;SDS011;39910;47.154;27.614;2023-04-01T07:24:51;11.13;;;10.55;;
34737;SDS011;39910;47.154;27.614;2023-04-01T07:27:17;10.60;;;10.10;;
34737;SDS011;39910;47.154;27.614;2023-04-01T07:29:43;10.48;;;9.98;;
34737;SDS011;39910;47.154;27.614;2023-04-01T07:39:59;9.43;;;9.02;;
34737;SDS011;39910;47.154;27.614;2023-04-01T07:47:51;10.00;;;9.50;;
34737;SDS011;39910;47.154;27.614;2023-04-01T07:50:21;10.55;;;10.05;;
34737;SDS011;39910;47.154;27.614;2023-04-01T07:53:33;10.38;;;9.88;;
34737;SDS011;39910;47.154;27.614;2023-04-01T07:55:45;10.27;;;9.77;;
34737;SDS011;39910;47.154;27.614;2023-04-01T08:06:26;9.50;;;9.10;;
34737;SDS011;39910;47.154;27.614;2023-04-01T08:09:04;10.63;;;10.13;;
34737;SDS011;39910;47.154;27.614;2023-04-01T08:11:34;10.73;;;10.20;;
34737;SDS011;39910;47.154;27.614;2023-04-01T08:14:15;9.90;;;9.40;;
34737;SDS011;39910;47.154;27.614;2023-04-01T08:21:54;10.70;;;10.20;;
34737;SDS011;39910;47.154;27.614;2023-04-01T08:24:42;10.90;;;10.32;;
34737;SDS011;39910;47.154;27.614;2023-04-01T08:27:53;10.85;;;10.25;;
34737;SDS011;39910;47.154;27.614;2023-04-01T08:30:01;10.52;;;10.02;;
34737;SDS011;39910;47.154;27.614;2023-04-01T08:32:29;10.98;;;10.38;;
34737;SDS011;39910;47.154;27.614;2023-04-01T08:35:02;11.68;;;11.05;;
34737;SDS011;39910;47.154;27.614;2023-04-01T08:37:32;11.80;;;11.20;;
34737;SDS011;39910;47.154;27.614;2023-04-01T08:42:52;10.13;;;9.63;;
34737;SDS011;39910;47.154;27.614;2023-04-01T09:00:57;10.35;;;9.85;;
34737;SDS011;39910;47.154;27.614;2023-04-01T09:09:17;10.32;;;9.82;;
34737;SDS011;39910;47.154;27.614;2023-04-01T09:21:57;10.73;;;10.20;;
34737;SDS011;39910;47.154;27.614;2023-04-01T09:37:41;10.55;;;10.05;;
34737;SDS011;39910;47.154;27.614;2023-04-01T09:40:56;10.75;;;10.25;;
34737;SDS011;39910;47.154;27.614;2023-04-01T09:58:53;10.63;;;10.13;;
34737;SDS011;39910;47.154;27.614;2023-04-01T10:11:30;11.13;;;10.55;;
34737;SDS011;39910;47.154;27.614;2023-04-01T10:34:41;10.50;;;10.00;;
34737;SDS011;39910;47.154;27.614;2023-04-01T10:50:16;11.23;;;10.63;;
34737;SDS011;39910;47.154;27.614;2023-04-01T11:02:53;12.38;;;11.68;;
34737;SDS011;39910;47.154;27.614;2023-04-01T11:29:54;11.13;;;10.52;;
34737;SDS011;39910;47.154;27.614;2023-04-01T11:31:55;10.45;;;9.95;;
34737;SDS011;39910;47.154;27.614;2023-04-01T11:42:13;11.38;;;10.77;;
34737;SDS011;39910;47.154;27.614;2023-04-01T11:44:43;11.50;;;10.90;;
34737;SDS011;39910;47.154;27.614;2023-04-01T11:47:54;11.18;;;10.57;;
34737;SDS011;39910;47.154;27.614;2023-04-01T11:50:02;11.80;;;11.20;;
34737;SDS011;39910;47.154;27.614;2023-04-01T12:03:05;11.43;;;10.82;;
34737;SDS011;39910;47.154;27.614;2023-04-01T12:10:40;12.13;;;11.52;;
34737;SDS011;39910;47.154;27.614;2023-04-01T12:20:57;11.27;;;10.73;;
34737;SDS011;39910;47.154;27.614;2023-04-01T12:28:28;10.38;;;9.88;;
34737;SDS011;39910;47.154;27.614;2023-04-01T12:41:08;12.30;;;11.70;;
34737;SDS011;39910;47.154;27.614;2023-04-01T12:43:52;11.30;;;10.70;;
34737;SDS011;39910;47.154;27.614;2023-04-01T12:46:24;11.85;;;11.25;;
34737;SDS011;39910;47.154;27.614;2023-04-01T12:52:12;11.98;;;11.38;;
34737;SDS011;39910;47.154;27.614;2023-04-01T13:02:11;11.38;;;10.77;;
34737;SDS011;39910;47.154;27.614;2023-04-01T13:04:48;11.13;;;10.63;;
34737;SDS011;39910;47.154;27.614;2023-04-01T13:17:34;10.88;;;10.38;;
34737;SDS011;39910;47.154;27.614;2023-04-01T13:27:56;11.15;;;10.65;;
34737;SDS011;39910;47.154;27.614;2023-04-01T13:30:47;11.90;;;11.30;;
34737;SDS011;39910;47.154;27.614;2023-04-01T13:36:05;11.60;;;11.00;;
34737;SDS011;39910;47.154;27.614;2023-04-01T13:44:50;10.73;;;10.23;;
34737;SDS011;39910;47.154;27.614;2023-04-01T14:07:04;11.07;;;10.57;;
34737;SDS011;39910;47.154;27.614;2023-04-01T14:12:21;10.70;;;10.20;;
34737;SDS011;39910;47.154;27.614;2023-04-01T14:20:29;11.80;;;11.20;;
34737;SDS011;39910;47.154;27.614;2023-04-01T14:25:32;9.80;;;9.40;;
34737;SDS011;39910;47.154;27.614;2023-04-01T14:28:27;11.25;;;10.65;;
34737;SDS011;39910;47.154;27.614;2023-04-01T14:35:59;12.18;;;11.57;;
34737;SDS011;39910;47.154;27.614;2023-04-01T14:38:45;11.85;;;11.25;;
34737;SDS011;39910;47.154;27.614;2023-04-01T14:46:53;11.48;;;10.88;;
34737;SDS011;39910;47.154;27.614;2023-04-01T14:49:32;11.48;;;10.88;;
34737;SDS011;39910;47.154;27.614;2023-04-01T14:54:41;12.43;;;11.75;;
34737;SDS011;39910;47.154;27.614;2023-04-01T14:57:13;11.95;;;11.35;;
34737;SDS011;39910;47.154;27.614;2023-04-01T14:59:40;11.70;;;11.10;;
34737;SDS011;39910;47.154;27.614;2023-04-01T15:35:21;11.82;;;11.23;;
34737;SDS011;39910;47.154;27.614;2023-04-01T15:37:56;10.35;;;9.85;;
34737;SDS011;39910;47.154;27.614;2023-04-01T15:45:16;12.52;;;11.82;;
34737;SDS011;39910;47.154;27.614;2023-04-01T15:47:44;11.15;;;10.60;;
34737;SDS011;39910;47.154;27.614;2023-04-01T16:13:08;10.73;;;10.23;;
34737;SDS011;39910;47.154;27.614;2023-04-01T16:21:27;10.52;;;10.02;;
34737;SDS011;39910;47.154;27.614;2023-04-01T16:24:46;10.35;;;9.85;;
34737;SDS011;39910;47.154;27.614;2023-04-01T16:32:21;10.38;;;9.88;;
34737;SDS011;39910;47.154;27.614;2023-04-01T16:34:56;10.40;;;9.90;;
34737;SDS011;39910;47.154;27.614;2023-04-01T16:37:32;11.00;;;10.50;;
34737;SDS011;39910;47.154;27.614;2023-04-01T16:43:05;10.63;;;10.13;;
34737;SDS011;39910;47.154;27.614;2023-04-01T16:45:45;10.80;;;10.30;;
34737;SDS011;39910;47.154;27.614;2023-04-01T16:48:19;10.55;;;10.05;;
34737;SDS011;39910;47.154;27.614;2023-04-01T16:50:52;10.82;;;10.32;;
34737;SDS011;39910;47.154;27.614;2023-04-01T16:53:40;10.50;;;10.00;;
34737;SDS011;39910;47.154;27.614;2023-04-01T16:56:10;10.48;;;9.98;;
34737;SDS011;39910;47.154;27.614;2023-04-01T16:58:38;10.27;;;9.77;;
34737;SDS011;39910;47.154;27.614;2023-04-01T17:01:10;10.10;;;9.60;;
34737;SDS011;39910;47.154;27.614;2023-04-01T17:03:44;10.75;;;10.25;;
34737;SDS011;39910;47.154;27.614;2023-04-01T17:11:23;10.18;;;9.68;;
34737;SDS011;39910;47.154;27.614;2023-04-01T17:21:34;9.80;;;9.40;;
34737;SDS011;39910;47.154;27.614;2023-04-01T17:24:06;10.30;;;9.80;;
34737;SDS011;39910;47.154;27.614;2023-04-01T17:29:04;10.43;;;9.93;;
34737;SDS011;39910;47.154;27.614;2023-04-01T17:34:22;10.77;;;10.27;;
34737;SDS011;39910;47.154;27.614;2023-04-01T17:44:23;10.30;;;9.80;;
34737;SDS011;39910;47.154;27.614;2023-04-01T17:49:26;10.48;;;9.98;;
34737;SDS011;39910;47.154;27.614;2023-04-01T17:52:00;10.07;;;9.57;;
34737;SDS011;39910;47.154;27.614;2023-04-01T17:54:30;10.57;;;10.07;;
34737;SDS011;39910;47.154;27.614;2023-04-01T18:10:14;10.75;;;10.25;;
34737;SDS011;39910;47.154;27.614;2023-04-01T18:15:32;11.07;;;10.47;;
34737;SDS011;39910;47.154;27.614;2023-04-01T18:18:25;10.55;;;10.05;;
34737;SDS011;39910;47.154;27.614;2023-04-01T18:21:00;10.60;;;10.10;;
34737;SDS011;39910;47.154;27.614;2023-04-01T18:23:29;10.38;;;9.88;;
34737;SDS011;39910;47.154;27.614;2023-04-01T18:26:02;10.23;;;9.73;;
34737;SDS011;39910;47.154;27.614;2023-04-01T18:41:40;10.10;;;9.60;;
34737;SDS011;39910;47.154;27.614;2023-04-01T18:52:13;10.43;;;9.93;;
34737;SDS011;39910;47.154;27.614;2023-04-01T18:57:25;10.38;;;9.88;;
34737;SDS011;39910;47.154;27.614;2023-04-01T19:00:03;11.00;;;10.40;;
34737;SDS011;39910;47.154;27.614;2023-04-01T19:02:37;10.82;;;10.25;;
34737;SDS011;39910;47.154;27.614;2023-04-01T19:05:11;10.13;;;9.63;;
34737;SDS011;39910;47.154;27.614;2023-04-01T19:07:47;10.30;;;9.80;;
34737;SDS011;39910;47.154;27.614;2023-04-01T19:15:38;10.20;;;9.70;;
34737;SDS011;39910;47.154;27.614;2023-04-01T19:20:57;10.38;;;9.88;;
34737;SDS011;39910;47.154;27.614;2023-04-01T19:25:53;9.88;;;9.38;;
34737;SDS011;39910;47.154;27.614;2023-04-01T19:38:21;9.80;;;9.30;;
34737;SDS011;39910;47.154;27.614;2023-04-01T19:56:41;10.25;;;9.75;;
34737;SDS011;39910;47.154;27.614;2023-04-01T19:59:24;10.07;;;9.57;;
34737;SDS011;39910;47.154;27.614;2023-04-01T20:04:36;9.75;;;9.25;;
34737;SDS011;39910;47.154;27.614;2023-04-01T20:12:19;9.60;;;9.17;;
34737;SDS011;39910;47.154;27.614;2023-04-01T20:22:28;10.38;;;9.88;;
34737;SDS011;39910;47.154;27.614;2023-04-01T20:24:57;9.90;;;9.40;;
34737;SDS011;39910;47.154;27.614;2023-04-01T20:27:24;9.60;;;9.20;;
34737;SDS011;39910;47.154;27.614;2023-04-01T20:32:40;10.32;;;9.82;;
34737;SDS011;39910;47.154;27.614;2023-04-01T20:40:32;10.00;;;9.50;;
34737;SDS011;39910;47.154;27.614;2023-04-01T20:53:16;9.90;;;9.40;;
34737;SDS011;39910;47.154;27.614;2023-04-01T21:06:35;9.63;;;9.20;;
34737;SDS011;39910;47.154;27.614;2023-04-01T21:11:35;9.45;;;9.02;;
34737;SDS011;39910;47.154;27.614;2023-04-01T21:14:07;9.65;;;9.20;;
34737;SDS011;39910;47.154;27.614;2023-04-01T21:16:41;10.32;;;9.82;;
34737;SDS011;39910;47.154;27.614;2023-04-01T21:19:12;10.00;;;9.50;;
34737;SDS011;39910;47.154;27.614;2023-04-01T21:26:53;9.75;;;9.25;;
34737;SDS011;39910;47.154;27.614;2023-04-01T21:31:53;9.30;;;8.90;;
34737;SDS011;39910;47.154;27.614;2023-04-01T21:37:30;9.32;;;8.93;;
34737;SDS011;39910;47.154;27.614;2023-04-01T21:52:33;9.68;;;9.20;;
34737;SDS011;39910;47.154;27.614;2023-04-01T22:00:18;9.40;;;9.00;;
34737;SDS011;39910;47.154;27.614;2023-04-01T22:07:57;9.80;;;9.30;;
34737;SDS011;39910;47.154;27.614;2023-04-01T22:13:05;9.50;;;9.10;;
34737;SDS011;39910;47.154;27.614;2023-04-01T22:26:52;9.63;;;9.17;;
34737;SDS011;39910;47.154;27.614;2023-04-01T22:29:27;10.38;;;9.88;;
34737;SDS011;39910;47.154;27.614;2023-04-01T22:31:59;11.38;;;10.77;;
34737;SDS011;39910;47.154;27.614;2023-04-01T22:42:38;9.75;;;9.25;;
34737;SDS011;39910;47.154;27.614;2023-04-01T22:45:10;9.77;;;9.27;;
34737;SDS011;39910;47.154;27.614;2023-04-01T22:52:41;10.55;;;10.05;;
34737;SDS011;39910;47.154;27.614;2023-04-01T22:55:13;9.73;;;9.27;;
34737;SDS011;39910;47.154;27.614;2023-04-01T22:57:47;10.13;;;9.63;;
34737;SDS011;39910;47.154;27.614;2023-04-01T23:00:30;10.30;;;9.80;;
34737;SDS011;39910;47.154;27.614;2023-04-01T23:03:07;9.70;;;9.25;;
34737;SDS011;39910;47.154;27.614;2023-04-01T23:05:34;11.13;;;10.52;;
34737;SDS011;39910;47.154;27.614;2023-04-01T23:08:33;9.75;;;9.27;;
34737;SDS011;39910;47.154;27.614;2023-04-01T23:10:54;10.20;;;9.70;;
34737;SDS011;39910;47.154;27.614;2023-04-01T23:13:38;9.85;;;9.35;;
34737;SDS011;39910;47.154;27.614;2023-04-01T23:16:04;9.52;;;9.13;;
34737;SDS011;39910;47.154;27.614;2023-04-01T23:26:13;10.93;;;10.32;;
34737;SDS011;39910;47.154;27.614;2023-04-01T23:28:41;10.60;;;10.10;;
34737;SDS011;39910;47.154;27.614;2023-04-01T23:31:41;10.57;;;10.07;;
34737;SDS011;39910;47.154;27.614;2023-04-01T23:34:20;9.65;;;9.18;;
34737;SDS011;39910;47.154;27.614;2023-04-01T23:36:48;9.70;;;9.20;;
34737;SDS011;39910;47.154;27.614;2023-04-01T23:39:22;10.40;;;9.90;;
34737;SDS011;39910;47.154;27.614;2023-04-01T23:41:48;9.80;;;9.30;;
34737;SDS011;39910;47.154;27.614;2023-04-01T23:44:15;9.50;;;9.10;;
34737;SDS011;39910;47.154;27.614;2023-04-01T23:46:42;10.00;;;9.50;;
34737;SDS011;39910;47.154;27.614;2023-04-01T23:49:30;9.70;;;9.20;;
34737;SDS011;39910;47.154;27.614;2023-04-01T23:51:56;9.98;;;9.48;;
34737;SDS011;39910;47.154;27.614;2023-04-01T23:56:53;10.00;;;9.50;;
34737;SDS011;39910;47.154;27.614;2023-04-01T23:59:23;10.15;;;9.65;;
